sensor_id;sensor_type;location;lat;lon;timestamp;temperature;humidity
51902;DHT22;37929;53.218;6.548;2023-06-10T00:01:05;18.20;99.90
51902;DHT22;37929;53.218;6.548;2023-06-10T00:03:31;18.20;99.90
51902;DHT22;37929;53.218;6.548;2023-06-10T00:05:58;18.10;99.90
51902;DHT22;37929;53.218;6.548;2023-06-10T00:08:23;18.10;99.90
51902;DHT22;37929;53.218;6.548;2023-06-10T00:10:50;18.10;99.90
51902;DHT22;37929;53.218;6.548;2023-06-10T00:13:15;18.00;99.90
51902;DHT22;37929;53.218;6.548;2023-06-10T00:15:42;18.00;99.90
51902;DHT22;37929;53.218;6.548;2023-06-10T00:18:07;18.00;99.90
51902;DHT22;37929;53.218;6.548;2023-06-10T00:20:35;18.00;99.90
51902;DHT22;37929;53.218;6.548;2023-06-10T00:23:03;17.90;99.90
51902;DHT22;37929;53.218;6.548;2023-06-10T00:25:32;17.90;99.90
51902;DHT22;37929;53.218;6.548;2023-06-10T00:27:58;17.90;99.90
51902;DHT22;37929;53.218;6.548;2023-06-10T00:30:24;17.90;99.90
51902;DHT22;37929;53.218;6.548;2023-06-10T00:32:49;17.90;99.90
51902;DHT22;37929;53.218;6.548;2023-06-10T00:35:15;17.80;99.90
51902;DHT22;37929;53.218;6.548;2023-06-10T00:37:41;17.80;99.90
51902;DHT22;37929;53.218;6.548;2023-06-10T00:40:07;17.80;99.90
51902;DHT22;37929;53.218;6.548;2023-06-10T00:42:34;17.80;99.90
51902;DHT22;37929;53.218;6.548;2023-06-10T00:45:00;17.70;99.90
51902;DHT22;37929;53.218;6.548;2023-06-10T00:47:27;17.70;99.90
51902;DHT22;37929;53.218;6.548;2023-06-10T00:49:53;17.70;99.90
51902;DHT22;37929;53.218;6.548;2023-06-10T00:52:21;17.70;99.90
51902;DHT22;37929;53.218;6.548;2023-06-10T00:54:47;17.60;99.90
51902;DHT22;37929;53.218;6.548;2023-06-10T00:57:13;17.70;99.90
51902;DHT22;37929;53.218;6.548;2023-06-10T00:59:44;17.70;99.90
51902;DHT22;37929;53.218;6.548;2023-06-10T01:02:11;17.60;99.90
51902;DHT22;37929;53.218;6.548;2023-06-10T01:04:37;17.60;99.90
51902;DHT22;37929;53.218;6.548;2023-06-10T01:10:29;17.50;99.90
51902;DHT22;37929;53.218;6.548;2023-06-10T01:13:05;17.40;99.90
51902;DHT22;37929;53.218;6.548;2023-06-10T01:15:33;17.40;99.90
51902;DHT22;37929;53.218;6.548;2023-06-10T01:18:02;17.40;99.90
51902;DHT22;37929;53.218;6.548;2023-06-10T01:20:32;17.30;99.90
51902;DHT22;37929;53.218;6.548;2023-06-10T01:22:59;17.30;99.90
51902;DHT22;37929;53.218;6.548;2023-06-10T01:25:26;17.40;99.90
51902;DHT22;37929;53.218;6.548;2023-06-10T01:28:18;17.30;99.90
51902;DHT22;37929;53.218;6.548;2023-06-10T01:33:36;17.20;99.90
51902;DHT22;37929;53.218;6.548;2023-06-10T01:36:03;17.10;99.90
51902;DHT22;37929;53.218;6.548;2023-06-10T01:38:55;17.10;99.90
51902;DHT22;37929;53.218;6.548;2023-06-10T01:41:22;17.10;99.90
51902;DHT22;37929;53.218;6.548;2023-06-10T01:43:51;17.00;99.90
51902;DHT22;37929;53.218;6.548;2023-06-10T01:46:17;17.00;99.90
51902;DHT22;37929;53.218;6.548;2023-06-10T01:48:46;17.00;99.90
51902;DHT22;37929;53.218;6.548;2023-06-10T01:51:12;17.00;99.90
51902;DHT22;37929;53.218;6.548;2023-06-10T01:53:38;17.00;99.90
51902;DHT22;37929;53.218;6.548;2023-06-10T01:56:04;17.00;99.90
51902;DHT22;37929;53.218;6.548;2023-06-10T01:58:30;17.00;99.90
51902;DHT22;37929;53.218;6.548;2023-06-10T02:00:56;16.90;99.90
51902;DHT22;37929;53.218;6.548;2023-06-10T02:03:21;16.90;99.90
51902;DHT22;37929;53.218;6.548;2023-06-10T02:05:48;16.90;99.90
51902;DHT22;37929;53.218;6.548;2023-06-10T02:08:14;16.80;99.90
51902;DHT22;37929;53.218;6.548;2023-06-10T02:10:40;16.80;99.90
51902;DHT22;37929;53.218;6.548;2023-06-10T02:13:06;16.80;99.90
51902;DHT22;37929;53.218;6.548;2023-06-10T02:15:32;16.80;99.90
51902;DHT22;37929;53.218;6.548;2023-06-10T02:17:59;16.70;99.90
51902;DHT22;37929;53.218;6.548;2023-06-10T02:20:26;16.70;99.90
51902;DHT22;37929;53.218;6.548;2023-06-10T02:22:52;16.70;99.90
51902;DHT22;37929;53.218;6.548;2023-06-10T02:25:18;16.60;99.90
51902;DHT22;37929;53.218;6.548;2023-06-10T02:27:43;16.60;99.90
51902;DHT22;37929;53.218;6.548;2023-06-10T02:30:09;16.60;99.90
51902;DHT22;37929;53.218;6.548;2023-06-10T02:32:36;16.60;99.90
51902;DHT22;37929;53.218;6.548;2023-06-10T02:35:02;16.60;99.90
51902;DHT22;37929;53.218;6.548;2023-06-10T02:37:27;16.50;99.90
51902;DHT22;37929;53.218;6.548;2023-06-10T02:39:53;16.50;99.90
51902;DHT22;37929;53.218;6.548;2023-06-10T02:42:19;16.50;99.90
51902;DHT22;37929;53.218;6.548;2023-06-10T02:44:45;16.50;99.90
51902;DHT22;37929;53.218;6.548;2023-06-10T02:47:11;16.50;99.90
51902;DHT22;37929;53.218;6.548;2023-06-10T02:49:36;16.40;99.90
51902;DHT22;37929;53.218;6.548;2023-06-10T02:52:02;16.40;99.90
51902;DHT22;37929;53.218;6.548;2023-06-10T02:54:28;16.40;99.90
51902;DHT22;37929;53.218;6.548;2023-06-10T02:56:54;16.40;99.90
51902;DHT22;37929;53.218;6.548;2023-06-10T02:59:21;16.30;99.90
51902;DHT22;37929;53.218;6.548;2023-06-10T03:01:47;16.30;99.90
51902;DHT22;37929;53.218;6.548;2023-06-10T03:04:13;16.30;99.90
51902;DHT22;37929;53.218;6.548;2023-06-10T03:06:40;16.30;99.90
51902;DHT22;37929;53.218;6.548;2023-06-10T03:09:11;16.30;99.90
51902;DHT22;37929;53.218;6.548;2023-06-10T03:11:37;16.30;99.90
51902;DHT22;37929;53.218;6.548;2023-06-10T03:14:02;16.20;99.90
51902;DHT22;37929;53.218;6.548;2023-06-10T03:16:28;16.20;99.90
51902;DHT22;37929;53.218;6.548;2023-06-10T03:18:55;16.20;99.90
51902;DHT22;37929;53.218;6.548;2023-06-10T03:21:21;16.20;99.90
51902;DHT22;37929;53.218;6.548;2023-06-10T03:23:47;16.10;99.90
51902;DHT22;37929;53.218;6.548;2023-06-10T03:26:13;16.10;99.90
51902;DHT22;37929;53.218;6.548;2023-06-10T03:28:41;16.10;99.90
51902;DHT22;37929;53.218;6.548;2023-06-10T03:31:06;16.10;99.90
51902;DHT22;37929;53.218;6.548;2023-06-10T03:33:32;16.10;99.90
51902;DHT22;37929;53.218;6.548;2023-06-10T03:35:58;16.10;99.90
51902;DHT22;37929;53.218;6.548;2023-06-10T03:38:25;16.10;99.90
51902;DHT22;37929;53.218;6.548;2023-06-10T03:40:51;16.10;99.90
51902;DHT22;37929;53.218;6.548;2023-06-10T03:43:19;16.00;99.90
51902;DHT22;37929;53.218;6.548;2023-06-10T03:45:45;16.00;99.90
51902;DHT22;37929;53.218;6.548;2023-06-10T03:48:14;16.00;99.90
51902;DHT22;37929;53.218;6.548;2023-06-10T03:50:40;16.00;99.90
51902;DHT22;37929;53.218;6.548;2023-06-10T03:53:06;16.00;99.90
51902;DHT22;37929;53.218;6.548;2023-06-10T03:55:32;15.90;99.90
51902;DHT22;37929;53.218;6.548;2023-06-10T03:57:58;16.00;99.90
51902;DHT22;37929;53.218;6.548;2023-06-10T04:00:23;16.00;99.90
51902;DHT22;37929;53.218;6.548;2023-06-10T04:02:49;16.00;99.90
51902;DHT22;37929;53.218;6.548;2023-06-10T04:05:18;15.90;99.90
51902;DHT22;37929;53.218;6.548;2023-06-10T04:07:47;16.00;99.90
51902;DHT22;37929;53.218;6.548;2023-06-10T04:10:14;15.90;99.90
51902;DHT22;37929;53.218;6.548;2023-06-10T04:12:40;15.90;99.90
51902;DHT22;37929;53.218;6.548;2023-06-10T04:15:06;15.90;99.90
51902;DHT22;37929;53.218;6.548;2023-06-10T04:17:32;15.90;99.90
51902;DHT22;37929;53.218;6.548;2023-06-10T04:19:58;15.90;99.90
51902;DHT22;37929;53.218;6.548;2023-06-10T04:22:24;15.90;99.90
51902;DHT22;37929;53.218;6.548;2023-06-10T04:24:50;15.80;99.90
51902;DHT22;37929;53.218;6.548;2023-06-10T04:27:16;15.90;99.90
51902;DHT22;37929;53.218;6.548;2023-06-10T04:29:41;15.90;99.90
51902;DHT22;37929;53.218;6.548;2023-06-10T04:32:07;15.90;99.90
51902;DHT22;37929;53.218;6.548;2023-06-10T04:34:39;15.90;99.90
51902;DHT22;37929;53.218;6.548;2023-06-10T04:37:05;15.80;99.90
51902;DHT22;37929;53.218;6.548;2023-06-10T04:39:32;15.80;99.90
51902;DHT22;37929;53.218;6.548;2023-06-10T04:41:57;15.80;99.90
51902;DHT22;37929;53.218;6.548;2023-06-10T04:44:23;15.80;99.90
51902;DHT22;37929;53.218;6.548;2023-06-10T04:46:49;15.80;99.90
51902;DHT22;37929;53.218;6.548;2023-06-10T04:49:14;15.80;99.90
51902;DHT22;37929;53.218;6.548;2023-06-10T04:51:41;15.80;99.90
51902;DHT22;37929;53.218;6.548;2023-06-10T04:54:07;15.80;99.90
51902;DHT22;37929;53.218;6.548;2023-06-10T04:56:32;15.80;99.90
51902;DHT22;37929;53.218;6.548;2023-06-10T04:58:59;15.80;99.90
51902;DHT22;37929;53.218;6.548;2023-06-10T05:01:25;15.80;99.90
51902;DHT22;37929;53.218;6.548;2023-06-10T05:03:51;15.80;99.90
51902;DHT22;37929;53.218;6.548;2023-06-10T05:06:17;15.90;99.90
51902;DHT22;37929;53.218;6.548;2023-06-10T05:08:43;15.80;99.90
51902;DHT22;37929;53.218;6.548;2023-06-10T05:11:09;15.90;99.90
51902;DHT22;37929;53.218;6.548;2023-06-10T05:13:35;15.80;99.90
51902;DHT22;37929;53.218;6.548;2023-06-10T05:16:01;15.80;99.90
51902;DHT22;37929;53.218;6.548;2023-06-10T05:18:27;15.80;99.90
51902;DHT22;37929;53.218;6.548;2023-06-10T05:20:52;15.90;99.90
51902;DHT22;37929;53.218;6.548;2023-06-10T05:23:22;15.90;99.90
51902;DHT22;37929;53.218;6.548;2023-06-10T05:25:48;15.90;99.90
51902;DHT22;37929;53.218;6.548;2023-06-10T05:28:14;15.90;99.90
51902;DHT22;37929;53.218;6.548;2023-06-10T05:30:40;15.90;99.90
51902;DHT22;37929;53.218;6.548;2023-06-10T05:33:06;16.00;99.90
51902;DHT22;37929;53.218;6.548;2023-06-10T05:35:31;16.00;99.90
51902;DHT22;37929;53.218;6.548;2023-06-10T05:37:57;15.90;99.90
51902;DHT22;37929;53.218;6.548;2023-06-10T05:40:23;16.00;99.90
51902;DHT22;37929;53.218;6.548;2023-06-10T05:42:52;15.90;99.90
51902;DHT22;37929;53.218;6.548;2023-06-10T05:45:18;16.00;99.90
51902;DHT22;37929;53.218;6.548;2023-06-10T05:47:43;16.00;99.90
51902;DHT22;37929;53.218;6.548;2023-06-10T05:50:09;16.00;99.90
51902;DHT22;37929;53.218;6.548;2023-06-10T05:52:36;16.00;99.90
51902;DHT22;37929;53.218;6.548;2023-06-10T05:55:05;16.10;99.90
51902;DHT22;37929;53.218;6.548;2023-06-10T05:57:31;16.10;99.90
51902;DHT22;37929;53.218;6.548;2023-06-10T05:59:56;16.10;99.90
51902;DHT22;37929;53.218;6.548;2023-06-10T06:02:23;16.10;99.90
51902;DHT22;37929;53.218;6.548;2023-06-10T06:04:48;16.20;99.90
51902;DHT22;37929;53.218;6.548;2023-06-10T06:07:14;16.20;99.90
51902;DHT22;37929;53.218;6.548;2023-06-10T06:09:40;16.20;99.90
51902;DHT22;37929;53.218;6.548;2023-06-10T06:12:06;16.20;99.90
51902;DHT22;37929;53.218;6.548;2023-06-10T06:14:33;16.20;99.90
51902;DHT22;37929;53.218;6.548;2023-06-10T06:17:02;16.20;99.90
51902;DHT22;37929;53.218;6.548;2023-06-10T06:19:28;16.30;99.90
51902;DHT22;37929;53.218;6.548;2023-06-10T06:21:54;16.30;99.90
51902;DHT22;37929;53.218;6.548;2023-06-10T06:24:20;16.30;99.90
51902;DHT22;37929;53.218;6.548;2023-06-10T06:26:45;16.40;99.90
51902;DHT22;37929;53.218;6.548;2023-06-10T06:29:11;16.40;99.90
51902;DHT22;37929;53.218;6.548;2023-06-10T06:31:37;16.40;99.90
51902;DHT22;37929;53.218;6.548;2023-06-10T06:34:02;16.40;99.90
51902;DHT22;37929;53.218;6.548;2023-06-10T06:36:31;16.50;99.90
51902;DHT22;37929;53.218;6.548;2023-06-10T06:39:00;16.50;99.90
51902;DHT22;37929;53.218;6.548;2023-06-10T06:41:28;16.50;99.90
51902;DHT22;37929;53.218;6.548;2023-06-10T06:43:55;16.60;99.90
51902;DHT22;37929;53.218;6.548;2023-06-10T06:46:20;16.60;99.90
51902;DHT22;37929;53.218;6.548;2023-06-10T06:48:48;16.70;99.90
51902;DHT22;37929;53.218;6.548;2023-06-10T06:51:13;16.70;99.90
51902;DHT22;37929;53.218;6.548;2023-06-10T06:53:39;16.80;99.90
51902;DHT22;37929;53.218;6.548;2023-06-10T06:56:13;16.80;99.90
51902;DHT22;37929;53.218;6.548;2023-06-10T06:58:39;16.80;99.90
51902;DHT22;37929;53.218;6.548;2023-06-10T07:01:05;16.90;99.90
51902;DHT22;37929;53.218;6.548;2023-06-10T07:03:31;16.90;99.90
51902;DHT22;37929;53.218;6.548;2023-06-10T07:05:57;16.90;99.90
51902;DHT22;37929;53.218;6.548;2023-06-10T07:08:23;17.00;99.90
51902;DHT22;37929;53.218;6.548;2023-06-10T07:14:30;17.10;99.90
51902;DHT22;37929;53.218;6.548;2023-06-10T07:17:02;17.10;99.90
51902;DHT22;37929;53.218;6.548;2023-06-10T07:19:28;17.10;99.90
51902;DHT22;37929;53.218;6.548;2023-06-10T07:21:59;17.30;99.90
51902;DHT22;37929;53.218;6.548;2023-06-10T07:24:25;17.40;99.90
51902;DHT22;37929;53.218;6.548;2023-06-10T07:26:51;17.50;99.90
51902;DHT22;37929;53.218;6.548;2023-06-10T07:29:17;17.50;99.90
51902;DHT22;37929;53.218;6.548;2023-06-10T07:31:42;17.60;99.90
51902;DHT22;37929;53.218;6.548;2023-06-10T07:34:08;17.70;99.90
51902;DHT22;37929;53.218;6.548;2023-06-10T07:36:34;17.70;99.90
51902;DHT22;37929;53.218;6.548;2023-06-10T07:39:00;17.80;99.90
51902;DHT22;37929;53.218;6.548;2023-06-10T07:41:25;17.90;99.90
51902;DHT22;37929;53.218;6.548;2023-06-10T07:43:54;18.00;99.90
51902;DHT22;37929;53.218;6.548;2023-06-10T07:46:22;18.00;99.90
51902;DHT22;37929;53.218;6.548;2023-06-10T07:48:48;18.10;99.90
51902;DHT22;37929;53.218;6.548;2023-06-10T07:51:16;18.20;99.90
51902;DHT22;37929;53.218;6.548;2023-06-10T07:53:42;18.20;99.90
51902;DHT22;37929;53.218;6.548;2023-06-10T07:56:10;18.30;99.90
51902;DHT22;37929;53.218;6.548;2023-06-10T07:58:36;18.40;99.90
51902;DHT22;37929;53.218;6.548;2023-06-10T08:01:02;18.40;99.90
51902;DHT22;37929;53.218;6.548;2023-06-10T08:03:27;18.50;99.90
51902;DHT22;37929;53.218;6.548;2023-06-10T08:05:53;18.60;99.90
51902;DHT22;37929;53.218;6.548;2023-06-10T08:08:19;18.70;99.90
51902;DHT22;37929;53.218;6.548;2023-06-10T08:10:45;18.80;99.90
51902;DHT22;37929;53.218;6.548;2023-06-10T08:13:11;18.90;99.90
51902;DHT22;37929;53.218;6.548;2023-06-10T08:15:37;19.00;99.90
51902;DHT22;37929;53.218;6.548;2023-06-10T08:18:02;19.10;99.90
51902;DHT22;37929;53.218;6.548;2023-06-10T08:20:28;19.10;99.90
51902;DHT22;37929;53.218;6.548;2023-06-10T08:22:54;19.20;99.90
51902;DHT22;37929;53.218;6.548;2023-06-10T08:25:20;19.30;99.90
51902;DHT22;37929;53.218;6.548;2023-06-10T08:27:48;19.40;99.90
51902;DHT22;37929;53.218;6.548;2023-06-10T08:30:14;19.50;99.90
51902;DHT22;37929;53.218;6.548;2023-06-10T08:32:40;19.60;99.90
51902;DHT22;37929;53.218;6.548;2023-06-10T08:35:05;19.60;99.90
51902;DHT22;37929;53.218;6.548;2023-06-10T08:37:31;19.80;99.90
51902;DHT22;37929;53.218;6.548;2023-06-10T08:40:04;19.90;99.90
51902;DHT22;37929;53.218;6.548;2023-06-10T08:42:45;20.00;99.90
51902;DHT22;37929;53.218;6.548;2023-06-10T08:45:17;20.10;99.90
51902;DHT22;37929;53.218;6.548;2023-06-10T08:47:46;20.20;99.90
51902;DHT22;37929;53.218;6.548;2023-06-10T08:50:16;20.30;99.90
51902;DHT22;37929;53.218;6.548;2023-06-10T08:52:43;20.40;99.90
51902;DHT22;37929;53.218;6.548;2023-06-10T08:55:23;20.40;99.90
51902;DHT22;37929;53.218;6.548;2023-06-10T08:57:53;20.50;99.90
51902;DHT22;37929;53.218;6.548;2023-06-10T09:00:19;20.60;99.90
51902;DHT22;37929;53.218;6.548;2023-06-10T09:02:46;20.70;99.90
51902;DHT22;37929;53.218;6.548;2023-06-10T09:05:12;20.70;99.90
51902;DHT22;37929;53.218;6.548;2023-06-10T09:07:39;20.70;99.90
51902;DHT22;37929;53.218;6.548;2023-06-10T09:10:05;20.90;99.90
51902;DHT22;37929;53.218;6.548;2023-06-10T09:12:33;20.90;99.90
51902;DHT22;37929;53.218;6.548;2023-06-10T09:15:00;21.00;99.90
51902;DHT22;37929;53.218;6.548;2023-06-10T09:17:27;21.10;99.90
51902;DHT22;37929;53.218;6.548;2023-06-10T09:19:53;21.20;99.90
51902;DHT22;37929;53.218;6.548;2023-06-10T09:22:22;21.20;99.90
51902;DHT22;37929;53.218;6.548;2023-06-10T09:24:48;21.20;99.90
51902;DHT22;37929;53.218;6.548;2023-06-10T09:27:13;21.30;99.90
51902;DHT22;37929;53.218;6.548;2023-06-10T09:29:55;21.30;99.90
51902;DHT22;37929;53.218;6.548;2023-06-10T09:32:21;21.40;99.90
51902;DHT22;37929;53.218;6.548;2023-06-10T09:34:47;21.50;99.90
51902;DHT22;37929;53.218;6.548;2023-06-10T09:37:22;21.60;99.90
51902;DHT22;37929;53.218;6.548;2023-06-10T09:40:05;21.70;99.90
51902;DHT22;37929;53.218;6.548;2023-06-10T09:42:35;21.70;99.90
51902;DHT22;37929;53.218;6.548;2023-06-10T09:45:03;21.70;99.90
51902;DHT22;37929;53.218;6.548;2023-06-10T09:47:29;21.80;99.90
51902;DHT22;37929;53.218;6.548;2023-06-10T09:49:55;21.80;99.90
51902;DHT22;37929;53.218;6.548;2023-06-10T09:52:22;21.80;99.90
51902;DHT22;37929;53.218;6.548;2023-06-10T09:54:48;21.80;99.90
51902;DHT22;37929;53.218;6.548;2023-06-10T09:57:17;21.80;99.90
51902;DHT22;37929;53.218;6.548;2023-06-10T09:59:42;21.90;99.90
51902;DHT22;37929;53.218;6.548;2023-06-10T10:02:17;21.90;99.90
51902;DHT22;37929;53.218;6.548;2023-06-10T10:04:44;22.00;99.90
51902;DHT22;37929;53.218;6.548;2023-06-10T10:07:13;22.00;99.90
51902;DHT22;37929;53.218;6.548;2023-06-10T10:09:40;22.10;99.90
51902;DHT22;37929;53.218;6.548;2023-06-10T10:12:12;22.20;99.90
51902;DHT22;37929;53.218;6.548;2023-06-10T10:15:10;22.30;99.90
51902;DHT22;37929;53.218;6.548;2023-06-10T10:17:51;22.40;99.90
51902;DHT22;37929;53.218;6.548;2023-06-10T10:20:24;22.50;99.90
51902;DHT22;37929;53.218;6.548;2023-06-10T10:22:52;22.50;99.90
51902;DHT22;37929;53.218;6.548;2023-06-10T10:25:40;22.50;99.90
51902;DHT22;37929;53.218;6.548;2023-06-10T10:28:11;22.50;99.90
51902;DHT22;37929;53.218;6.548;2023-06-10T10:30:42;22.50;99.90
51902;DHT22;37929;53.218;6.548;2023-06-10T10:33:29;22.50;99.90
51902;DHT22;37929;53.218;6.548;2023-06-10T10:36:03;22.60;99.90
51902;DHT22;37929;53.218;6.548;2023-06-10T10:38:30;22.60;99.90
51902;DHT22;37929;53.218;6.548;2023-06-10T10:40:57;22.70;99.90
51902;DHT22;37929;53.218;6.548;2023-06-10T10:43:25;22.80;99.90
51902;DHT22;37929;53.218;6.548;2023-06-10T10:46:01;22.90;99.90
51902;DHT22;37929;53.218;6.548;2023-06-10T10:48:37;22.90;99.90
51902;DHT22;37929;53.218;6.548;2023-06-10T10:51:07;23.10;99.90
51902;DHT22;37929;53.218;6.548;2023-06-10T10:53:33;23.20;99.90
51902;DHT22;37929;53.218;6.548;2023-06-10T10:56:13;23.20;99.90
51902;DHT22;37929;53.218;6.548;2023-06-10T10:58:39;23.30;99.90
51902;DHT22;37929;53.218;6.548;2023-06-10T11:01:12;23.30;99.90
51902;DHT22;37929;53.218;6.548;2023-06-10T11:03:45;23.40;99.90
51902;DHT22;37929;53.218;6.548;2023-06-10T11:06:17;23.40;99.90
51902;DHT22;37929;53.218;6.548;2023-06-10T11:11:24;23.40;99.90
51902;DHT22;37929;53.218;6.548;2023-06-10T11:16:42;23.60;99.90
51902;DHT22;37929;53.218;6.548;2023-06-10T11:19:09;23.70;99.90
51902;DHT22;37929;53.218;6.548;2023-06-10T11:22:01;23.70;99.90
51902;DHT22;37929;53.218;6.548;2023-06-10T11:24:29;23.80;99.90
51902;DHT22;37929;53.218;6.548;2023-06-10T11:26:55;23.80;99.90
51902;DHT22;37929;53.218;6.548;2023-06-10T11:29:21;23.90;99.90
51902;DHT22;37929;53.218;6.548;2023-06-10T11:31:50;24.00;99.90
51902;DHT22;37929;53.218;6.548;2023-06-10T11:34:24;24.10;99.90
51902;DHT22;37929;53.218;6.548;2023-06-10T11:36:52;24.20;99.90
51902;DHT22;37929;53.218;6.548;2023-06-10T11:39:20;24.30;99.90
51902;DHT22;37929;53.218;6.548;2023-06-10T11:41:46;24.50;99.90
51902;DHT22;37929;53.218;6.548;2023-06-10T11:44:16;24.60;99.90
51902;DHT22;37929;53.218;6.548;2023-06-10T11:46:42;24.70;99.90
51902;DHT22;37929;53.218;6.548;2023-06-10T11:49:08;24.90;99.90
51902;DHT22;37929;53.218;6.548;2023-06-10T11:51:39;25.10;99.90
51902;DHT22;37929;53.218;6.548;2023-06-10T11:54:14;25.20;99.90
51902;DHT22;37929;53.218;6.548;2023-06-10T11:56:40;25.30;99.90
51902;DHT22;37929;53.218;6.548;2023-06-10T11:59:06;25.40;99.90
51902;DHT22;37929;53.218;6.548;2023-06-10T12:01:38;25.60;99.90
51902;DHT22;37929;53.218;6.548;2023-06-10T12:04:07;25.60;99.90
51902;DHT22;37929;53.218;6.548;2023-06-10T12:06:44;25.70;99.90
51902;DHT22;37929;53.218;6.548;2023-06-10T12:09:14;25.80;99.90
51902;DHT22;37929;53.218;6.548;2023-06-10T12:11:42;25.80;99.90
51902;DHT22;37929;53.218;6.548;2023-06-10T12:14:09;25.90;99.90
51902;DHT22;37929;53.218;6.548;2023-06-10T12:16:34;26.00;99.90
51902;DHT22;37929;53.218;6.548;2023-06-10T12:19:04;26.00;99.90
51902;DHT22;37929;53.218;6.548;2023-06-10T12:21:32;26.00;99.90
51902;DHT22;37929;53.218;6.548;2023-06-10T12:26:44;26.20;99.90
51902;DHT22;37929;53.218;6.548;2023-06-10T12:29:23;26.20;99.90
51902;DHT22;37929;53.218;6.548;2023-06-10T12:32:04;26.30;99.90
51902;DHT22;37929;53.218;6.548;2023-06-10T12:34:39;26.30;99.90
51902;DHT22;37929;53.218;6.548;2023-06-10T12:37:10;26.40;99.90
51902;DHT22;37929;53.218;6.548;2023-06-10T12:39:39;26.40;99.90
51902;DHT22;37929;53.218;6.548;2023-06-10T12:42:05;26.40;99.90
51902;DHT22;37929;53.218;6.548;2023-06-10T12:44:40;26.50;99.90
51902;DHT22;37929;53.218;6.548;2023-06-10T12:47:13;26.50;99.90
51902;DHT22;37929;53.218;6.548;2023-06-10T12:49:39;26.60;99.80
51902;DHT22;37929;53.218;6.548;2023-06-10T12:52:05;26.60;99.90
51902;DHT22;37929;53.218;6.548;2023-06-10T12:57:22;26.80;99.90
51902;DHT22;37929;53.218;6.548;2023-06-10T13:00:08;26.80;99.90
51902;DHT22;37929;53.218;6.548;2023-06-10T13:03:13;26.90;99.80
51902;DHT22;37929;53.218;6.548;2023-06-10T13:05:58;27.00;99.80
51902;DHT22;37929;53.218;6.548;2023-06-10T13:08:29;27.10;99.90
51902;DHT22;37929;53.218;6.548;2023-06-10T13:11:01;27.20;99.90
51902;DHT22;37929;53.218;6.548;2023-06-10T13:13:26;27.20;99.90
51902;DHT22;37929;53.218;6.548;2023-06-10T13:15:52;27.20;99.90
51902;DHT22;37929;53.218;6.548;2023-06-10T13:18:18;27.20;99.90
51902;DHT22;37929;53.218;6.548;2023-06-10T13:20:44;27.20;99.90
51902;DHT22;37929;53.218;6.548;2023-06-10T13:23:10;27.20;99.90
51902;DHT22;37929;53.218;6.548;2023-06-10T13:25:39;27.20;99.80
51902;DHT22;37929;53.218;6.548;2023-06-10T13:28:06;27.20;99.50
51902;DHT22;37929;53.218;6.548;2023-06-10T13:30:32;27.10;99.50
51902;DHT22;37929;53.218;6.548;2023-06-10T13:32:57;27.00;99.20
51902;DHT22;37929;53.218;6.548;2023-06-10T13:35:23;27.00;99.30
51902;DHT22;37929;53.218;6.548;2023-06-10T13:37:49;27.00;99.20
51902;DHT22;37929;53.218;6.548;2023-06-10T13:40:16;27.00;99.10
51902;DHT22;37929;53.218;6.548;2023-06-10T13:42:41;26.90;99.00
51902;DHT22;37929;53.218;6.548;2023-06-10T13:45:07;26.90;98.80
51902;DHT22;37929;53.218;6.548;2023-06-10T13:47:34;26.90;98.60
51902;DHT22;37929;53.218;6.548;2023-06-10T13:50:00;27.00;98.50
51902;DHT22;37929;53.218;6.548;2023-06-10T13:52:26;26.90;98.60
51902;DHT22;37929;53.218;6.548;2023-06-10T13:54:52;26.90;98.60
51902;DHT22;37929;53.218;6.548;2023-06-10T13:57:17;26.90;97.90
51902;DHT22;37929;53.218;6.548;2023-06-10T13:59:43;26.90;97.30
51902;DHT22;37929;53.218;6.548;2023-06-10T14:02:09;27.00;97.00
51902;DHT22;37929;53.218;6.548;2023-06-10T14:04:35;27.00;97.00
51902;DHT22;37929;53.218;6.548;2023-06-10T14:07:01;27.00;97.00
51902;DHT22;37929;53.218;6.548;2023-06-10T14:09:27;26.90;96.80
51902;DHT22;37929;53.218;6.548;2023-06-10T14:11:53;26.80;96.70
51902;DHT22;37929;53.218;6.548;2023-06-10T14:14:19;26.80;96.40
51902;DHT22;37929;53.218;6.548;2023-06-10T14:16:45;26.80;96.50
51902;DHT22;37929;53.218;6.548;2023-06-10T14:19:11;26.70;96.70
51902;DHT22;37929;53.218;6.548;2023-06-10T14:21:37;26.70;96.30
51902;DHT22;37929;53.218;6.548;2023-06-10T14:24:03;26.70;96.20
51902;DHT22;37929;53.218;6.548;2023-06-10T14:26:29;26.70;96.10
51902;DHT22;37929;53.218;6.548;2023-06-10T14:28:55;26.70;95.90
51902;DHT22;37929;53.218;6.548;2023-06-10T14:31:21;26.70;95.60
51902;DHT22;37929;53.218;6.548;2023-06-10T14:33:46;26.70;95.50
51902;DHT22;37929;53.218;6.548;2023-06-10T14:36:12;26.70;95.20
51902;DHT22;37929;53.218;6.548;2023-06-10T14:38:38;26.60;95.00
51902;DHT22;37929;53.218;6.548;2023-06-10T14:41:04;26.60;94.70
51902;DHT22;37929;53.218;6.548;2023-06-10T14:43:30;26.60;94.30
51902;DHT22;37929;53.218;6.548;2023-06-10T14:45:55;26.60;94.10
51902;DHT22;37929;53.218;6.548;2023-06-10T14:48:23;26.60;94.10
51902;DHT22;37929;53.218;6.548;2023-06-10T14:50:49;26.50;94.10
51902;DHT22;37929;53.218;6.548;2023-06-10T14:53:18;26.50;94.00
51902;DHT22;37929;53.218;6.548;2023-06-10T14:55:47;26.50;94.00
51902;DHT22;37929;53.218;6.548;2023-06-10T14:58:12;26.40;94.00
51902;DHT22;37929;53.218;6.548;2023-06-10T15:00:38;26.50;94.10
51902;DHT22;37929;53.218;6.548;2023-06-10T15:03:04;26.50;94.10
51902;DHT22;37929;53.218;6.548;2023-06-10T15:05:30;26.50;94.10
51902;DHT22;37929;53.218;6.548;2023-06-10T15:07:55;26.50;94.20
51902;DHT22;37929;53.218;6.548;2023-06-10T15:10:21;26.50;94.30
51902;DHT22;37929;53.218;6.548;2023-06-10T15:12:47;26.40;94.40
51902;DHT22;37929;53.218;6.548;2023-06-10T15:15:13;26.40;94.00
51902;DHT22;37929;53.218;6.548;2023-06-10T15:17:39;26.40;93.90
51902;DHT22;37929;53.218;6.548;2023-06-10T15:20:05;26.40;93.90
51902;DHT22;37929;53.218;6.548;2023-06-10T15:22:33;26.40;93.90
51902;DHT22;37929;53.218;6.548;2023-06-10T15:25:00;26.40;94.10
51902;DHT22;37929;53.218;6.548;2023-06-10T15:27:25;26.40;94.20
51902;DHT22;37929;53.218;6.548;2023-06-10T15:29:51;26.30;94.10
51902;DHT22;37929;53.218;6.548;2023-06-10T15:32:17;26.30;94.40
51902;DHT22;37929;53.218;6.548;2023-06-10T15:34:43;26.30;94.30
51902;DHT22;37929;53.218;6.548;2023-06-10T15:37:09;26.20;94.30
51902;DHT22;37929;53.218;6.548;2023-06-10T15:39:35;26.20;94.50
51902;DHT22;37929;53.218;6.548;2023-06-10T15:42:01;26.20;94.20
51902;DHT22;37929;53.218;6.548;2023-06-10T15:44:27;26.10;94.00
51902;DHT22;37929;53.218;6.548;2023-06-10T15:46:52;26.10;93.90
51902;DHT22;37929;53.218;6.548;2023-06-10T15:49:18;26.10;94.00
51902;DHT22;37929;53.218;6.548;2023-06-10T15:51:44;26.10;94.10
51902;DHT22;37929;53.218;6.548;2023-06-10T15:54:10;26.10;94.10